Time;durP1;ratioP1;P1;durP2;ratioP2;P2;SDS_P1;SDS_P2;PMS_P1;PMS_P2;Temp;Humidity;BMP_temperature;BMP_pressure;BME280_temperature;BME280_humidity;BME280_pressure;Samples;Min_cycle;Max_cycle;Signal;HPM_P1;HPM_P2
2022/05/30 00:00:28;;;;;;;12.20;2.17;;;7.60;99.90;;;;;;5032477;28;20041;-79
2022/05/30 00:02:54;;;;;;;11.35;2.13;;;7.80;99.90;;;;;;5031430;28;20115;-79
2022/05/30 00:05:23;;;;;;;7.85;1.73;;;7.50;99.90;;;;;;5032402;28;20057;-80
2022/05/30 00:07:49;;;;;;;8.93;2.30;;;7.50;99.90;;;;;;5032371;28;20541;-79
2022/05/30 00:10:15;;;;;;;12.27;2.25;;;7.50;99.90;;;;;;5031598;28;20057;-79
2022/05/30 00:12:41;;;;;;;13.55;1.95;;;7.50;99.90;;;;;;5015326;28;20115;-79
2022/05/30 00:15:09;;;;;;;9.60;2.30;;;7.50;99.90;;;;;;5032539;28;20049;-79
2022/05/30 00:17:35;;;;;;;9.60;2.30;;;7.50;99.90;;;;;;5032244;28;20499;-83
2022/05/30 00:20:01;;;;;;;12.40;1.90;;;7.40;99.90;;;;;;5014807;28;20056;-79
2022/05/30 00:22:26;;;;;;;11.13;2.38;;;7.30;99.90;;;;;;5031214;28;20490;-79
2022/05/30 00:24:52;;;;;;;10.65;2.13;;;7.20;99.90;;;;;;5032507;28;20145;-79
2022/05/30 00:27:18;;;;;;;10.95;2.30;;;7.00;99.90;;;;;;5031449;28;20111;-80
2022/05/30 00:29:44;;;;;;;13.55;3.80;;;7.00;99.90;;;;;;5031416;28;20041;-79
2022/05/30 00:32:11;;;;;;;7.72;2.35;;;6.80;99.90;;;;;;5032159;28;20092;-79
2022/05/30 00:34:38;;;;;;;14.65;2.60;;;6.70;99.90;;;;;;5032331;28;20045;-79
2022/05/30 00:37:04;;;;;;;14.50;2.85;;;6.60;99.90;;;;;;5030795;28;20372;-79
2022/05/30 00:39:30;;;;;;;7.88;2.30;;;6.50;99.90;;;;;;5031436;28;20052;-79
2022/05/30 00:42:26;;;;;;;13.30;2.67;;;6.80;99.90;;;;;;5032242;28;20041;-80
2022/05/30 00:44:53;;;;;;;12.15;2.67;;;6.30;99.90;;;;;;5029986;28;20064;-80
2022/05/30 00:47:21;;;;;;;12.27;2.60;;;6.30;99.90;;;;;;5029926;28;20045;-79
2022/05/30 00:49:48;;;;;;;14.30;2.97;;;6.20;99.90;;;;;;5013377;28;20156;-79
2022/05/30 00:52:26;;;;;;;10.85;2.45;;;6.10;99.90;;;;;;5013573;28;20087;-79
2022/05/30 00:54:55;;;;;;;10.32;2.40;;;6.10;99.90;;;;;;5029939;28;20521;-79
2022/05/30 00:57:23;;;;;;;16.40;3.13;;;6.00;99.90;;;;;;5029859;28;20045;-79
2022/05/30 00:59:59;;;;;;;11.32;2.70;;;5.90;99.90;;;;;;5029929;28;20398;-79
2022/05/30 01:02:30;;;;;;;12.27;2.58;;;6.10;99.90;;;;;;5029627;28;20234;-79
2022/05/30 01:07:42;;;;;;;8.73;2.70;;;5.70;99.90;;;;;;5029721;28;20119;-79
2022/05/30 01:10:11;;;;;;;9.32;2.50;;;5.70;99.90;;;;;;5000306;28;20049;-79
2022/05/30 01:12:52;;;;;;;11.38;2.97;;;5.70;99.90;;;;;;5033382;28;20498;-79
2022/05/30 01:15:23;;;;;;;10.98;3.05;;;5.60;99.90;;;;;;5033271;28;20061;-80
2022/05/30 01:17:57;;;;;;;;;;;5.60;99.90;;;;;;5033601;28;20560;-79
2022/05/30 01:20:57;;;;;;;10.90;3.10;;;5.60;99.90;;;;;;5033330;28;20015;-79
2022/05/30 01:23:31;;;;;;;8.93;2.50;;;5.60;99.90;;;;;;5034874;28;20085;-79
2022/05/30 01:26:09;;;;;;;8.82;2.50;;;5.60;99.90;;;;;;5034350;28;20132;-79
2022/05/30 01:29:08;;;;;;;17.05;3.05;;;5.60;99.90;;;;;;5035488;28;20123;-79
2022/05/30 01:31:34;;;;;;;14.90;3.05;;;5.60;99.90;;;;;;5016379;28;20422;-79
2022/05/30 01:33:59;;;;;;;16.27;3.47;;;5.60;99.90;;;;;;5016468;28;20049;-79
2022/05/30 01:36:28;;;;;;;19.33;3.20;;;5.50;99.90;;;;;;5032699;28;20143;-84
2022/05/30 01:38:54;;;;;;;14.63;3.05;;;5.50;99.90;;;;;;5032836;28;20045;-79
2022/05/30 01:41:19;;;;;;;10.30;3.30;;;5.50;99.90;;;;;;5032631;28;20396;-79
2022/05/30 01:43:46;;;;;;;13.65;2.75;;;5.50;99.90;;;;;;5032713;28;20053;-79
2022/05/30 01:46:15;;;;;;;13.73;3.10;;;5.40;99.90;;;;;;5015962;28;20604;-79
2022/05/30 01:48:42;;;;;;;6.95;2.88;;;5.40;99.90;;;;;;5032598;28;20060;-80
2022/05/30 01:51:07;;;;;;;11.55;2.70;;;5.40;99.90;;;;;;5016236;28;20143;-79
2022/05/30 01:53:33;;;;;;;11.60;2.88;;;5.30;99.90;;;;;;5032683;28;20089;-79
2022/05/30 01:55:59;;;;;;;12.30;2.85;;;5.30;99.90;;;;;;5032606;28;20526;-79
2022/05/30 01:58:25;;;;;;;13.88;2.95;;;5.20;99.90;;;;;;5032484;28;20516;-79
2022/05/30 02:00:50;;;;;;;12.35;3.10;;;5.20;99.90;;;;;;5032289;28;20050;-80
2022/05/30 02:03:16;;;;;;;10.65;3.40;;;5.10;99.90;;;;;;5032157;28;20515;-79
2022/05/30 02:05:42;;;;;;;7.68;2.88;;;5.10;99.90;;;;;;5032461;28;20056;-79
2022/05/30 02:08:08;;;;;;;12.68;3.42;;;5.10;99.90;;;;;;5033564;28;20061;-79
2022/05/30 02:10:35;;;;;;;17.25;3.58;;;5.00;99.90;;;;;;5034630;28;20047;-79
2022/05/30 02:13:02;;;;;;;10.80;2.92;;;5.00;99.90;;;;;;5033337;28;20051;-79
2022/05/30 02:15:28;;;;;;;8.75;3.40;;;5.00;99.90;;;;;;5033292;28;20042;-79
2022/05/30 02:17:54;;;;;;;13.85;3.20;;;5.00;99.90;;;;;;5033062;28;20053;-79
2022/05/30 02:20:21;;;;;;;10.20;3.60;;;4.90;99.90;;;;;;5033315;28;20049;-79
2022/05/30 02:22:46;;;;;;;18.08;4.15;;;4.90;99.90;;;;;;5034151;28;20041;-79
2022/05/30 02:25:12;;;;;;;14.68;4.70;;;5.20;99.90;;;;;;5034200;28;20061;-79
2022/05/30 02:27:41;;;;;;;14.80;4.30;;;5.00;99.90;;;;;;5033233;28;20072;-79
2022/05/30 02:30:09;;;;;;;9.95;3.92;;;5.40;99.90;;;;;;5033898;28;20050;-87
2022/05/30 02:32:35;;;;;;;14.57;4.45;;;5.10;99.90;;;;;;5016304;28;20372;-79
2022/05/30 02:37:44;;;;;;;13.05;4.45;;;5.30;99.90;;;;;;5033981;28;20214;-79
2022/05/30 02:40:10;;;;;;;12.15;4.30;;;5.30;99.90;;;;;;5033861;28;20045;-79
2022/05/30 02:42:36;;;;;;;14.05;4.55;;;5.40;99.90;;;;;;5033778;28;20486;-79
2022/05/30 02:45:03;;;;;;;19.85;4.80;;;5.50;99.90;;;;;;5033683;28;20048;-80
2022/05/30 02:47:29;;;;;;;10.32;3.72;;;5.50;99.90;;;;;;5032609;28;20091;-79
2022/05/30 02:49:55;;;;;;;7.82;3.60;;;5.60;99.90;;;;;;5033779;28;20088;-79
2022/05/30 02:52:20;;;;;;;13.55;4.20;;;5.60;99.90;;;;;;5033641;28;20124;-79
2022/05/30 02:54:46;;;;;;;12.80;3.85;;;5.80;99.90;;;;;;5033688;28;20106;-79
2022/05/30 02:57:12;;;;;;;10.07;3.95;;;5.90;99.90;;;;;;5033439;28;20128;-79
2022/05/30 02:59:37;;;;;;;12.38;4.20;;;5.90;99.90;;;;;;5033388;28;20084;-79
2022/05/30 03:02:03;;;;;;;10.57;4.38;;;6.00;99.90;;;;;;5033136;28;20096;-79
2022/05/30 03:04:29;;;;;;;12.38;3.70;;;6.10;99.90;;;;;;5033494;28;20042;-79
2022/05/30 03:06:55;;;;;;;8.23;3.88;;;6.10;99.90;;;;;;5032362;28;20345;-79
2022/05/30 03:09:20;;;;;;;9.48;3.35;;;6.10;99.90;;;;;;5033415;28;20498;-86
2022/05/30 03:11:46;;;;;;;12.18;3.85;;;6.20;99.90;;;;;;5033225;28;20080;-80
2022/05/30 03:14:12;;;;;;;8.48;3.65;;;6.20;99.90;;;;;;5033139;28;20046;-80
2022/05/30 03:16:38;;;;;;;11.98;4.20;;;6.10;99.90;;;;;;5032910;28;20045;-79
2022/05/30 03:19:03;;;;;;;7.97;3.70;;;6.00;99.90;;;;;;5033068;28;20046;-79
2022/05/30 03:21:29;;;;;;;10.43;3.70;;;5.90;99.90;;;;;;5032821;28;20372;-79
2022/05/30 03:23:55;;;;;;;9.65;3.83;;;5.90;99.90;;;;;;5032031;28;20056;-79
2022/05/30 03:26:20;;;;;;;12.00;3.30;;;5.80;99.90;;;;;;5032905;28;20057;-80
2022/05/30 03:28:46;;;;;;;14.02;3.90;;;5.70;99.90;;;;;;5033059;28;20056;-79
2022/05/30 03:31:12;;;;;;;13.75;3.90;;;5.60;99.90;;;;;;5032612;28;20479;-80
2022/05/30 03:33:39;;;;;;;11.00;3.75;;;5.60;99.90;;;;;;5033191;28;20128;-79
2022/05/30 03:36:13;;;;;;;13.32;3.97;;;5.40;99.90;;;;;;5033100;28;20049;-79
2022/05/30 03:38:39;;;;;;;8.45;3.92;;;5.00;99.90;;;;;;5031608;28;20414;-80
2022/05/30 03:41:05;;;;;;;10.25;3.97;;;5.30;99.90;;;;;;5015366;28;20062;-79
2022/05/30 03:43:30;;;;;;;9.65;3.88;;;5.20;99.90;;;;;;5031883;28;20046;-79
2022/05/30 03:45:56;;;;;;;13.02;3.70;;;5.10;99.90;;;;;;5032515;28;20041;-80
2022/05/30 03:48:23;;;;;;;15.00;4.13;;;5.10;99.90;;;;;;5032961;28;20088;-79
2022/05/30 03:50:49;;;;;;;12.43;3.92;;;5.10;99.90;;;;;;5032797;28;20041;-79
2022/05/30 03:53:15;;;;;;;17.15;4.38;;;5.00;99.90;;;;;;5032773;28;20083;-80
2022/05/30 03:55:44;;;;;;;18.45;4.35;;;4.90;99.90;;;;;;5032782;28;20045;-79
2022/05/30 03:58:11;;;;;;;12.73;4.53;;;4.90;99.90;;;;;;5032620;28;20091;-80
2022/05/30 04:00:39;;;;;;;11.13;3.95;;;4.90;99.90;;;;;;5031528;28;20505;-80
2022/05/30 04:03:06;;;;;;;12.15;4.05;;;4.90;99.90;;;;;;5032793;28;20199;-80
2022/05/30 04:05:32;;;;;;;18.75;4.20;;;4.90;99.90;;;;;;5031520;28;20056;-80
2022/05/30 04:07:58;;;;;;;14.63;4.07;;;4.90;99.90;;;;;;5031516;28;20049;-79
2022/05/30 04:10:25;;;;;;;7.68;3.38;;;4.90;99.90;;;;;;5032464;28;20130;-79
2022/05/30 04:12:58;;;;;;;14.90;4.50;;;4.90;99.90;;;;;;5032444;28;20048;-79
2022/05/30 04:15:23;;;;;;;14.88;4.68;;;5.00;99.90;;;;;;5032253;28;20061;-79
2022/05/30 04:17:49;;;;;;;10.57;4.03;;;5.10;99.90;;;;;;5031388;28;20046;-79
2022/05/30 04:20:16;;;;;;;16.08;4.38;;;5.30;99.90;;;;;;5032429;28;20132;-79
2022/05/30 04:22:44;;;;;;;11.90;4.70;;;5.40;99.90;;;;;;5032270;28;20133;-79
2022/05/30 04:25:11;;;;;;;9.18;4.85;;;5.60;99.90;;;;;;5031256;28;20103;-79
2022/05/30 04:27:36;;;;;;;13.27;4.60;;;5.70;99.90;;;;;;5032311;28;20064;-80
2022/05/30 04:30:04;;;;;;;12.38;4.85;;;5.90;99.90;;;;;;5031321;28;20498;-79
2022/05/30 04:32:31;;;;;;;9.60;4.03;;;6.00;99.90;;;;;;5031182;28;20131;-79
2022/05/30 04:34:57;;;;;;;13.57;3.70;;;6.20;99.90;;;;;;5015064;28;20135;-79
2022/05/30 04:37:22;;;;;;;13.35;4.13;;;6.40;99.90;;;;;;5030968;28;20132;-79
2022/05/30 04:39:48;;;;;;;9.68;3.28;;;6.50;99.90;;;;;;5031562;28;20041;-79
2022/05/30 04:42:14;;;;;;;14.05;3.25;;;6.70;99.90;;;;;;5030116;28;20041;-80
2022/05/30 04:44:39;;;;;;;9.50;4.28;;;6.70;99.90;;;;;;5034239;28;20042;-80
2022/05/30 04:47:06;;;;;;;11.82;3.40;;;6.90;99.90;;;;;;5034799;28;20053;-79
2022/05/30 04:49:32;;;;;;;8.50;3.05;;;7.00;99.90;;;;;;5031683;28;20100;-79
2022/05/30 04:51:58;;;;;;;7.40;2.85;;;7.00;99.90;;;;;;5016021;28;20074;-79
2022/05/30 04:54:25;;;;;;;12.88;3.33;;;7.10;99.90;;;;;;5025135;28;20049;-80
2022/05/30 04:56:51;;;;;;;10.27;3.20;;;7.10;99.90;;;;;;5035743;28;20396;-79
2022/05/30 04:59:17;;;;;;;7.20;2.35;;;7.50;99.90;;;;;;5034731;28;20049;-79
2022/05/30 05:01:43;;;;;;;6.32;2.33;;;7.30;99.90;;;;;;5035493;28;20386;-80
2022/05/30 05:04:11;;;;;;;8.10;2.30;;;7.30;99.90;;;;;;5036024;28;20041;-80
2022/05/30 05:06:37;;;;;;;9.45;2.55;;;7.30;99.90;;;;;;5035804;28;20049;-79
2022/05/30 05:09:29;;;;;;;7.03;2.40;;;7.60;99.90;;;;;;5034556;28;20061;-79
2022/05/30 05:11:55;;;;;;;9.75;2.63;;;7.30;99.90;;;;;;5035892;28;20057;-80
2022/05/30 05:14:21;;;;;;;7.57;2.58;;;7.30;99.90;;;;;;5035971;28;20395;-80
2022/05/30 05:16:47;;;;;;;7.30;2.53;;;7.30;99.90;;;;;;5034475;28;20487;-80
2022/05/30 05:19:13;;;;;;;5.95;2.33;;;7.20;99.90;;;;;;5035585;28;20494;-80
2022/05/30 05:21:42;;;;;;;5.82;2.10;;;7.40;99.90;;;;;;5034329;28;20132;-80
2022/05/30 05:24:08;;;;;;;8.50;2.28;;;7.20;99.90;;;;;;5034057;28;20057;-80
2022/05/30 05:26:35;;;;;;;7.72;2.40;;;7.30;99.90;;;;;;5034341;28;20052;-79
2022/05/30 05:29:00;;;;;;;4.93;1.73;;;7.40;99.90;;;;;;5034977;28;20455;-79
2022/05/30 05:31:35;;;;;;;5.75;1.83;;;7.50;99.90;;;;;;5034308;28;20093;-79
2022/05/30 05:34:04;;;;;;;4.85;1.80;;;7.70;99.90;;;;;;5033914;28;20084;-78
2022/05/30 05:36:33;;;;;;;6.53;2.00;;;7.80;99.90;;;;;;5035211;28;20054;-79
2022/05/30 05:38:59;;;;;;;10.85;2.65;;;7.90;99.90;;;;;;5035137;28;20060;-79
2022/05/30 05:41:25;;;;;;;5.50;1.85;;;7.90;99.90;;;;;;5034879;28;20103;-79
2022/05/30 05:43:54;;;;;;;5.80;2.00;;;7.90;99.90;;;;;;5035138;28;20045;-81
2022/05/30 05:46:22;;;;;;;7.88;2.25;;;8.00;99.90;;;;;;5034110;28;20053;-80
2022/05/30 05:48:50;;;;;;;6.53;1.90;;;8.00;99.90;;;;;;5001184;28;20156;-80
2022/05/30 05:51:17;;;;;;;3.55;1.50;;;8.50;99.90;;;;;;5035540;28;20045;-79
2022/05/30 05:53:43;;;;;;;6.30;1.58;;;8.30;99.90;;;;;;5034925;28;20096;-88
2022/05/30 05:56:11;;;;;;;4.43;1.45;;;8.50;99.90;;;;;;5034690;28;20038;-79
2022/05/30 05:58:36;;;;;;;6.40;1.48;;;8.60;99.90;;;;;;5035154;28;20098;-79
2022/05/30 06:01:16;;;;;;;4.80;1.65;;;8.80;99.90;;;;;;5036023;28;20045;-79
2022/05/30 06:03:42;;;;;;;4.10;1.20;;;9.00;99.90;;;;;;5035285;28;20053;-79
2022/05/30 06:06:08;;;;;;;7.43;1.15;;;9.40;99.90;;;;;;5034942;28;20037;-79
2022/05/30 06:08:35;;;;;;;3.20;0.98;;;9.40;99.90;;;;;;5038145;28;20134;-79
2022/05/30 06:11:11;;;;;;;7.15;1.20;;;9.60;99.90;;;;;;5037320;28;20048;-80
2022/05/30 06:13:43;;;;;;;4.60;0.90;;;9.70;99.90;;;;;;5035629;28;20045;-80
2022/05/30 06:16:14;;;;;;;3.53;1.02;;;10.00;99.90;;;;;;5035801;28;20053;-87
2022/05/30 06:18:40;;;;;;;;;;;10.10;99.90;;;;;;5037310;28;20089;-79
2022/05/30 06:21:06;;;;;;;4.30;0.90;;;10.10;99.90;;;;;;5035160;28;20015;-79
2022/05/30 06:23:32;;;;;;;3.00;0.80;;;10.00;99.90;;;;;;5034808;28;20045;-80
2022/05/30 06:26:01;;;;;;;3.60;0.90;;;10.10;99.90;;;;;;5034801;28;20490;-79
2022/05/30 06:28:28;;;;;;;5.55;1.17;;;10.20;99.90;;;;;;5035745;28;20053;-79
2022/05/30 06:30:54;;;;;;;3.97;1.38;;;10.50;99.90;;;;;;5034595;28;20077;-80
2022/05/30 06:33:20;;;;;;;3.67;1.00;;;10.80;99.90;;;;;;5034587;28;20487;-80
2022/05/30 06:35:46;;;;;;;4.32;1.10;;;11.10;99.90;;;;;;5033979;28;20392;-81
2022/05/30 06:38:12;;;;;;;5.38;1.13;;;11.50;99.90;;;;;;5033268;28;20060;-81
2022/05/30 06:40:38;;;;;;;4.15;1.00;;;11.70;99.90;;;;;;5034321;28;20045;-81
2022/05/30 06:43:04;;;;;;;6.90;0.93;;;11.90;99.90;;;;;;5034119;28;20055;-80
2022/05/30 06:45:31;;;;;;;3.03;0.70;;;12.00;99.90;;;;;;5032815;28;20045;-80
2022/05/30 06:47:57;;;;;;;6.13;0.85;;;12.20;99.90;;;;;;5034164;28;20042;-80
2022/05/30 06:50:23;;;;;;;5.30;0.90;;;12.20;99.90;;;;;;5049453;28;20049;-80
2022/05/30 06:52:48;;;;;;;4.95;1.10;;;12.30;99.90;;;;;;5016130;28;20057;-81
2022/05/30 06:55:14;;;;;;;2.92;0.90;;;12.60;99.90;;;;;;5032590;28;20052;-80
2022/05/30 07:00:24;;;;;;;3.20;1.05;;;13.60;99.90;;;;;;5033505;28;20049;-82
2022/05/30 07:02:51;;;;;;;4.70;0.80;;;14.70;99.90;;;;;;5032604;28;20053;-82
2022/05/30 07:05:17;;;;;;;4.03;0.90;;;15.00;99.90;;;;;;5033374;28;20033;-81
2022/05/30 07:07:45;;;;;;;4.15;0.90;;;15.10;99.90;;;;;;5032736;28;20045;-81
2022/05/30 07:10:11;;;;;;;1.77;0.50;;;15.00;99.90;;;;;;5033346;28;20057;-81
2022/05/30 07:12:37;;;;;;;3.22;0.52;;;14.80;99.90;;;;;;5033506;28;20053;-81
2022/05/30 07:15:03;;;;;;;6.20;0.65;;;14.50;99.90;;;;;;5033357;28;20153;-80
2022/05/30 07:17:32;;;;;;;3.40;0.90;;;14.60;99.90;;;;;;5015933;28;20049;-80
2022/05/30 07:19:58;;;;;;;12.70;1.70;;;15.20;99.90;;;;;;5032176;28;20049;-81
2022/05/30 07:22:24;;;;;;;7.75;1.63;;;15.10;99.90;;;;;;5031956;28;20048;-80
2022/05/30 07:24:50;;;;;;;1.60;0.50;;;14.90;99.90;;;;;;5032036;28;20126;-80
2022/05/30 07:27:16;;;;;;;2.67;0.47;;;14.90;99.90;;;;;;5033157;28;20049;-81
2022/05/30 07:29:42;;;;;;;3.47;0.60;;;15.00;99.90;;;;;;5032460;28;20060;-80
2022/05/30 07:32:08;;;;;;;3.63;0.65;;;15.00;99.90;;;;;;5033279;28;20479;-81
2022/05/30 07:34:34;;;;;;;5.30;0.60;;;15.00;99.90;;;;;;5015641;28;20046;-81
2022/05/30 07:36:59;;;;;;;3.78;0.50;;;14.80;99.90;;;;;;5032773;28;20477;-80
2022/05/30 07:39:25;;;;;;;1.95;0.50;;;14.50;99.90;;;;;;5033035;28;20041;-80
2022/05/30 07:41:51;;;;;;;2.47;0.60;;;14.00;99.90;;;;;;5031709;28;20052;-81
2022/05/30 07:44:17;;;;;;;2.83;0.50;;;13.90;99.90;;;;;;5032833;28;20045;-80
2022/05/30 07:46:44;;;;;;;1.35;0.35;;;14.00;99.90;;;;;;5031624;28;20045;-80
2022/05/30 07:49:12;;;;;;;2.85;0.52;;;14.20;99.90;;;;;;5032873;28;20407;-80
2022/05/30 07:51:38;;;;;;;2.47;0.47;;;14.40;99.90;;;;;;5032005;28;20087;-84
2022/05/30 07:54:04;;;;;;;2.55;0.45;;;14.70;99.90;;;;;;5032901;28;20172;-82
2022/05/30 07:56:30;;;;;;;3.45;0.40;;;14.90;99.90;;;;;;5032961;28;20045;-81
2022/05/30 07:58:56;;;;;;;4.22;0.50;;;15.20;99.90;;;;;;5031687;28;20109;-79
2022/05/30 08:01:22;;;;;;;2.95;0.47;;;15.50;99.90;;;;;;5032879;28;20101;-81
2022/05/30 08:03:50;;;;;;;3.25;0.50;;;15.80;99.90;;;;;;5032754;28;20114;-81
2022/05/30 08:06:19;;;;;;;3.40;0.40;;;16.20;99.90;;;;;;5048102;28;20124;-81
2022/05/30 08:08:45;;;;;;;1.45;0.40;;;17.10;99.90;;;;;;5031621;28;20092;-81
2022/05/30 08:11:12;;;;;;;1.25;0.40;;;17.40;97.40;;;;;;5032713;28;20041;-80
2022/05/30 08:13:38;;;;;;;4.07;0.40;;;17.30;98.00;;;;;;5032507;28;20049;-85
2022/05/30 08:16:05;;;;;;;1.65;0.20;;;17.80;97.80;;;;;;5031864;28;20049;-82
2022/05/30 08:18:32;;;;;;;1.80;0.65;;;18.80;89.20;;;;;;5033096;28;20037;-80
2022/05/30 08:20:58;;;;;;;2.90;0.57;;;18.90;84.70;;;;;;5035778;28;20042;-81
2022/05/30 08:23:24;;;;;;;1.23;0.38;;;18.70;84.00;;;;;;5035820;28;20099;-81
2022/05/30 08:25:51;;;;;;;1.63;0.30;;;18.20;86.50;;;;;;5035757;28;20054;-82
2022/05/30 08:28:16;;;;;;;1.27;0.30;;;17.50;91.20;;;;;;5036040;28;20037;-81
2022/05/30 08:30:42;;;;;;;1.27;0.32;;;16.70;93.20;;;;;;5036143;28;20053;-81
2022/05/30 08:33:13;;;;;;;1.77;0.40;;;16.10;93.80;;;;;;5036033;28;20509;-80
2022/05/30 08:35:45;;;;;;;2.80;0.30;;;15.50;96.20;;;;;;5036785;28;20431;-82
2022/05/30 08:38:10;;;;;;;1.42;0.30;;;15.30;99.90;;;;;;5036001;28;20045;-81
2022/05/30 08:43:35;;;;;;;5.30;0.60;;;15.80;99.90;;;;;;5036179;28;20057;-81
2022/05/30 08:46:12;;;;;;;5.30;0.70;;;16.00;98.10;;;;;;5036179;28;20068;-81
2022/05/30 08:48:54;;;;;;;2.90;0.43;;;16.10;95.20;;;;;;5035101;28;20056;-82
2022/05/30 08:51:26;;;;;;;1.77;0.32;;;16.10;93.00;;;;;;5035349;28;20045;-81
2022/05/30 08:53:54;;;;;;;2.92;0.30;;;16.10;93.70;;;;;;5036047;28;20418;-82
2022/05/30 08:56:33;;;;;;;0.68;0.30;;;16.40;88.00;;;;;;5035894;28;20045;-81
2022/05/30 08:59:26;;;;;;;2.33;0.40;;;16.40;88.70;;;;;;5018210;28;20043;-82
2022/05/30 09:02:05;;;;;;;2.63;0.30;;;16.50;87.20;;;;;;5035849;28;20092;-82
2022/05/30 09:04:37;;;;;;;1.85;0.60;;;16.50;90.20;;;;;;5035001;28;20045;-81
2022/05/30 09:07:14;;;;;;;1.13;0.40;;;16.60;91.60;;;;;;5035734;28;20128;-82
2022/05/30 09:09:47;;;;;;;1.60;0.40;;;16.70;87.60;;;;;;5035879;28;20042;-82
2022/05/30 09:12:38;;;;;;;1.45;0.30;;;16.70;87.20;;;;;;5035775;28;20132;-82
2022/05/30 09:15:22;;;;;;;2.17;0.22;;;16.80;73.60;;;;;;5034660;28;20041;-82
2022/05/30 09:18:07;;;;;;;1.40;0.40;;;16.70;84.90;;;;;;5035430;28;20114;-82
2022/05/30 09:20:33;;;;;;;0.52;0.20;;;16.50;86.40;;;;;;5035322;28;20506;-81
2022/05/30 09:23:02;;;;;;;1.83;0.35;;;16.40;83.30;;;;;;5035504;28;20472;-82
2022/05/30 09:28:19;;;;;;;1.50;0.40;;;16.50;84.60;;;;;;5033186;28;20053;-84
2022/05/30 09:31:06;;;;;;;19.63;3.03;;;16.60;81.80;;;;;;5034016;28;20486;-82
2022/05/30 09:33:40;;;;;;;15.95;2.30;;;16.70;79.60;;;;;;5033852;28;20487;-81
2022/05/30 09:36:13;;;;;;;3.10;0.30;;;16.60;80.80;;;;;;5034036;28;20068;-81
2022/05/30 09:38:45;;;;;;;24.02;2.33;;;16.40;84.50;;;;;;5034059;28;20049;-81
2022/05/30 09:41:24;;;;;;;4.03;0.75;;;16.20;88.50;;;;;;5049387;28;20045;-81
2022/05/30 09:44:03;;;;;;;5.03;0.50;;;16.00;91.30;;;;;;5034058;28;20407;-84
2022/05/30 09:46:39;;;;;;;3.15;0.60;;;15.70;95.00;;;;;;5034438;28;20514;-81
2022/05/30 09:49:07;;;;;;;2.40;0.70;;;15.70;97.00;;;;;;5034234;28;20099;-81
2022/05/30 09:51:44;;;;;;;2.67;0.60;;;15.70;97.20;;;;;;5034633;28;20042;-82
2022/05/30 09:54:29;;;;;;;2.45;0.52;;;15.70;97.10;;;;;;5036466;28;20129;-82
2022/05/30 09:57:00;;;;;;;1.38;0.43;;;15.70;97.00;;;;;;5036512;28;20427;-81
2022/05/30 09:59:41;;;;;;;2.97;0.50;;;15.80;99.00;;;;;;5035858;28;20041;-81
2022/05/30 10:02:27;;;;;;;1.48;0.40;;;15.90;96.90;;;;;;5035525;28;20103;-81
2022/05/30 10:05:26;;;;;;;4.82;0.50;;;15.90;97.10;;;;;;5050223;28;20057;-80
2022/05/30 10:08:04;;;;;;;1.38;0.40;;;15.90;96.70;;;;;;5032800;28;20454;-80
2022/05/30 10:10:30;;;;;;;2.20;0.52;;;15.80;99.50;;;;;;5032649;28;20132;-81
2022/05/30 10:13:04;;;;;;;2.03;0.60;;;15.70;98.50;;;;;;5032962;28;20486;-80
2022/05/30 10:15:33;;;;;;;7.30;0.70;;;15.60;99.00;;;;;;5032326;28;20077;-80
2022/05/30 10:18:21;;;;;;;1.08;0.50;;;15.40;99.60;;;;;;5031622;28;20124;-81
2022/05/30 10:21:08;;;;;;;2.33;0.57;;;15.40;99.90;;;;;;5031462;28;20056;-81
2022/05/30 10:29:47;;;;;;;1.63;0.47;;;15.80;96.90;;;;;;5093268;28;20146;-80
2022/05/30 10:32:16;;;;;;;4.32;0.60;;;16.30;98.70;;;;;;5090191;28;20048;-81
2022/05/30 10:35:09;;;;;;;2.10;0.40;;;16.40;95.80;;;;;;5089003;28;20555;-80
2022/05/30 10:37:52;;;;;;;1.58;0.47;;;16.20;95.40;;;;;;5089883;28;20083;-80
2022/05/30 10:41:07;;;;;;;3.40;0.50;;;15.80;99.90;;;;;;5090139;28;20131;-79
2022/05/30 10:43:52;;;;;;;2.15;0.55;;;15.40;99.90;;;;;;5067486;28;20096;-79
2022/05/30 10:46:34;;;;;;;2.88;0.50;;;15.00;99.90;;;;;;5067520;28;20051;-80
2022/05/30 10:49:08;;;;;;;2.78;0.57;;;14.70;99.90;;;;;;5034548;28;20040;-79
2022/05/30 10:52:20;;;;;;;2.25;0.50;;;14.80;99.90;;;;;;5067667;28;20094;-79
2022/05/30 10:54:51;;;;;;;1.92;0.60;;;14.90;99.90;;;;;;4968589;28;20066;-79
2022/05/30 10:57:22;;;;;;;1.00;0.30;;;15.20;99.90;;;;;;4969205;28;20521;-80
2022/05/30 10:59:56;;;;;;;1.95;0.50;;;15.50;99.90;;;;;;4968958;28;20065;-79
2022/05/30 11:02:34;;;;;;;1.17;0.40;;;16.50;96.90;;;;;;4968818;28;20134;-80
2022/05/30 11:05:02;;;;;;;1.98;0.50;;;17.30;81.40;;;;;;4968319;28;20050;-80
2022/05/30 11:08:08;;;;;;;3.10;0.70;;;17.80;83.00;;;;;;4968439;28;20433;-80
2022/05/30 11:10:39;;;;;;;1.98;0.52;;;19.60;70.60;;;;;;4952820;28;20042;-80
2022/05/30 11:13:24;;;;;;;3.78;0.52;;;21.60;62.90;;;;;;4968572;28;20623;-80
2022/05/30 11:16:00;;;;;;;1.08;0.30;;;22.70;56.00;;;;;;4952799;28;20055;-81
2022/05/30 11:18:35;;;;;;;1.30;0.40;;;22.50;55.70;;;;;;4968648;28;20058;-81
2022/05/30 11:21:17;;;;;;;1.13;0.40;;;22.10;55.50;;;;;;5005396;28;20054;-80
2022/05/30 11:23:43;;;;;;;0.85;0.30;;;21.50;56.00;;;;;;4989949;28;20046;-87
2022/05/30 11:26:43;;;;;;;0.90;0.40;;;20.50;58.60;;;;;;4987770;28;20113;-80
2022/05/30 11:29:22;;;;;;;1.63;0.50;;;19.60;60.40;;;;;;4957035;28;20058;-80
2022/05/30 11:32:10;;;;;;;3.55;1.52;;;18.60;64.90;;;;;;5035467;28;20385;-79
2022/05/30 11:34:56;;;;;;;4.32;1.50;;;18.00;69.30;;;;;;5050863;28;20457;-80
2022/05/30 11:37:25;;;;;;;2.65;0.30;;;17.50;72.40;;;;;;5039316;28;20511;-80
2022/05/30 11:40:19;;;;;;;1.25;0.40;;;17.10;74.30;;;;;;5037406;28;20087;-80
2022/05/30 11:43:17;;;;;;;2.40;0.35;;;16.90;79.90;;;;;;5035855;28;20057;-78
2022/05/30 11:46:01;;;;;;;0.88;0.20;;;16.80;79.10;;;;;;5018711;28;20087;-80
2022/05/30 11:48:58;;;;;;;0.73;0.30;;;16.60;79.50;;;;;;5035573;28;20136;-80
2022/05/30 11:52:07;;;;;;;2.08;0.30;;;16.60;79.90;;;;;;5018139;28;20049;-80
2022/05/30 11:54:51;;;;;;;1.33;0.20;;;16.50;78.80;;;;;;5017753;28;20124;-79
2022/05/30 11:57:25;;;;;;;1.00;0.28;;;16.30;77.80;;;;;;5033266;28;20143;-79
2022/05/30 12:00:33;;;;;;;1.67;0.30;;;16.50;83.90;;;;;;5016645;28;20075;-80
2022/05/30 12:03:27;;;;;;;0.85;0.30;;;17.00;78.50;;;;;;4938921;29;20150;-81
2022/05/30 12:05:55;;;;;;;1.95;0.40;;;17.60;66.90;;;;;;4947318;29;20047;-81
2022/05/30 12:08:45;;;;;;;1.55;0.45;;;18.40;67.10;;;;;;4935519;29;20056;-81
2022/05/30 12:11:29;;;;;;;0.80;0.35;;;20.40;63.60;;;;;;4935722;29;20056;-81
2022/05/30 12:14:09;;;;;;;1.70;0.30;;;22.50;55.60;;;;;;4919764;29;20063;-80
2022/05/30 12:17:11;;;;;;;1.40;0.53;;;23.00;51.30;;;;;;4920530;29;20047;-81
2022/05/30 12:25:34;;;;;;;1.85;0.30;;;20.90;58.20;;;;;;4957226;28;20138;-81
2022/05/30 12:28:00;;;;;;;;;;;21.00;54.20;;;;;;4958134;28;20046;-79
2022/05/30 12:30:34;;;;;;;1.45;0.20;;;21.40;51.60;;;;;;4973518;28;19922;-79
2022/05/30 12:33:19;;;;;;;0.77;0.20;;;21.00;54.30;;;;;;4957378;28;20090;-82
2022/05/30 12:35:45;;;;;;;0.68;0.20;;;20.70;55.20;;;;;;4934343;28;20058;-83
2022/05/30 12:38:14;;;;;;;1.60;0.28;;;20.30;55.90;;;;;;4956674;28;20068;-82
2022/05/30 12:40:43;;;;;;;0.50;0.17;;;19.70;56.50;;;;;;5051206;28;20143;-82
2022/05/30 12:43:22;;;;;;;1.25;0.30;;;19.20;58.30;;;;;;5052334;28;20049;-82
2022/05/30 12:45:57;;;;;;;2.72;0.50;;;18.60;58.30;;;;;;5035502;28;20087;-82
2022/05/30 12:48:53;;;;;;;1.20;0.35;;;18.20;62.00;;;;;;5050953;28;20053;-83
2022/05/30 12:51:31;;;;;;;2.03;0.28;;;18.10;63.80;;;;;;5052394;28;20063;-83
2022/05/30 12:54:01;;;;;;;2.90;0.38;;;18.00;64.10;;;;;;5052605;28;20060;-85
2022/05/30 12:56:39;;;;;;;0.40;0.30;;;18.10;64.50;;;;;;5051854;28;20088;-82
2022/05/30 12:59:16;;;;;;;0.70;0.30;;;18.20;63.00;;;;;;5036035;28;20061;-83
2022/05/30 13:01:44;;;;;;;1.17;0.30;;;18.30;64.20;;;;;;5052093;28;20041;-84
2022/05/30 13:04:21;;;;;;;0.98;0.43;;;18.50;65.70;;;;;;5041296;28;20110;-82
2022/05/30 13:06:56;;;;;;;1.42;0.30;;;18.80;64.80;;;;;;5071518;28;20057;-87
2022/05/30 13:09:38;;;;;;;2.75;0.35;;;19.10;60.90;;;;;;5072272;28;20135;-82
2022/05/30 13:12:18;;;;;;;1.33;0.32;;;19.00;61.70;;;;;;5072501;28;20055;-81
2022/05/30 13:14:49;;;;;;;1.77;0.43;;;18.80;61.20;;;;;;5054642;28;20045;-81
2022/05/30 13:17:23;;;;;;;1.30;0.40;;;18.50;63.40;;;;;;5072301;28;20135;-81
2022/05/30 13:19:53;;;;;;;1.80;0.50;;;18.30;67.60;;;;;;5071135;28;20402;-84
2022/05/30 13:22:33;;;;;;;1.90;0.40;;;17.90;71.60;;;;;;5072834;28;20051;-83
2022/05/30 13:24:59;;;;;;;1.77;0.40;;;17.70;73.10;;;;;;5072469;28;20057;-81
2022/05/30 13:27:27;;;;;;;1.10;0.30;;;17.70;73.60;;;;;;5072233;28;20091;-81
2022/05/30 13:29:52;;;;;;;1.40;0.35;;;17.80;72.30;;;;;;5071516;28;20052;-82
2022/05/30 13:32:21;;;;;;;3.72;0.40;;;18.10;69.20;;;;;;5071548;28;20049;-82
2022/05/30 13:34:50;;;;;;;1.80;0.40;;;18.40;65.80;;;;;;5038179;28;20493;-81
2022/05/30 13:37:43;;;;;;;1.60;0.50;;;18.60;67.60;;;;;;5052668;28;20110;-81